Time;durP1;ratioP1;P1;durP2;ratioP2;P2;SDS_P1;SDS_P2;PMS_P1;PMS_P2;Temp;Humidity;BMP_temperature;BMP_pressure;BME280_temperature;BME280_humidity;BME280_pressure;Samples;Min_cycle;Max_cycle;Signal;HPM_P1;HPM_P2
2022/07/26 00:02:28;;;;;;;;;;;;;;;26.04;51.44;95655.25;10239390;29;1809;-70
2022/07/26 00:07:28;;;;;;;;;;;;;;;26.01;51.31;95654.00;10242716;29;1938;-69
2022/07/26 00:12:29;;;;;;;;;;;;;;;25.99;51.48;95644.81;10242151;28;1699;-69
2022/07/26 00:17:30;;;;;;;;;;;;;;;25.98;51.51;95624.63;10242277;28;1828;-70
2022/07/26 00:22:33;;;;;;;;;;;;;;;25.97;51.59;95631.00;10243948;28;1877;-69
2022/07/26 00:27:35;;;;;;;;;;;;;;;25.94;51.71;95640.41;10242040;28;1910;-70
2022/07/26 00:32:36;;;;;;;;;;;;;;;25.91;51.63;95634.91;10251731;28;1827;-70
2022/07/26 00:37:37;;;;;;;;;;;;;;;25.89;51.62;95639.75;10230575;28;1786;-69
2022/07/26 00:42:37;;;;;;;;;;;;;;;25.86;51.54;95622.59;10252123;28;2009;-70
2022/07/26 00:47:38;;;;;;;;;;;;;;;25.83;51.61;95594.78;10236712;28;1953;-70
2022/07/26 00:52:42;;;;;;;;;;;;;;;25.83;51.62;95584.16;10251637;28;1959;-70
2022/07/26 00:57:43;;;;;;;;;;;;;;;25.86;51.53;95579.31;10235738;28;2026;-70
2022/07/26 01:02:44;;;;;;;;;;;;;;;25.87;51.49;95581.66;10218158;28;2008;-70
2022/07/26 01:07:44;;;;;;;;;;;;;;;25.87;51.40;95588.81;10234302;28;1995;-70
2022/07/26 01:12:45;;;;;;;;;;;;;;;25.86;51.39;95580.09;10237989;28;1969;-70
2022/07/26 01:17:46;;;;;;;;;;;;;;;25.84;51.42;95577.72;10234502;28;2023;-70
2022/07/26 01:23:06;;;;;;;;;;;;;;;25.85;51.49;95578.53;10240382;28;1956;-70
2022/07/26 01:28:07;;;;;;;;;;;;;;;25.84;51.14;95583.03;10248200;28;1980;-70
2022/07/26 01:33:11;;;;;;;;;;;;;;;25.84;51.24;95569.78;10230239;28;1956;-69
2022/07/26 01:38:31;;;;;;;;;;;;;;;25.85;51.06;95578.53;10237492;28;1890;-69
2022/07/26 01:43:49;;;;;;;;;;;;;;;25.85;51.13;95586.50;10235090;28;2004;-69
2022/07/26 01:48:50;;;;;;;;;;;;;;;25.86;51.07;95576.66;10237380;28;1977;-70
2022/07/26 01:53:50;;;;;;;;;;;;;;;25.82;50.86;95574.59;10234590;28;2005;-69
2022/07/26 01:58:51;;;;;;;;;;;;;;;25.80;50.79;95576.78;10233003;28;1893;-70
2022/07/26 02:03:51;;;;;;;;;;;;;;;25.80;50.83;95568.81;10237617;28;1929;-69
2022/07/26 02:08:51;;;;;;;;;;;;;;;25.79;50.69;95563.84;10239101;28;1957;-69
2022/07/26 02:13:53;;;;;;;;;;;;;;;25.77;50.77;95566.81;10234036;28;2007;-69
2022/07/26 02:18:54;;;;;;;;;;;;;;;25.80;50.56;95560.88;10232167;28;1976;-70
2022/07/26 02:23:55;;;;;;;;;;;;;;;25.83;50.54;95572.75;10229223;28;2021;-70
2022/07/26 02:28:55;;;;;;;;;;;;;;;25.78;50.77;95581.63;10251502;28;1958;-70
2022/07/26 02:33:55;;;;;;;;;;;;;;;25.80;50.61;95586.66;10236113;28;2009;-69
2022/07/26 02:38:57;;;;;;;;;;;;;;;25.83;50.49;95592.13;10228968;28;2027;-70
2022/07/26 02:43:57;;;;;;;;;;;;;;;25.82;50.36;95579.16;10199843;29;1981;-69
2022/07/26 02:48:59;;;;;;;;;;;;;;;25.78;50.45;95584.28;10232229;28;1895;-70
2022/07/26 02:53:59;;;;;;;;;;;;;;;25.77;50.49;95592.56;10249835;28;1969;-70
2022/07/26 02:59:00;;;;;;;;;;;;;;;25.79;50.50;95580.56;10234310;28;1952;-70
2022/07/26 03:04:01;;;;;;;;;;;;;;;25.76;50.47;95586.47;10235429;28;1929;-70
2022/07/26 03:09:01;;;;;;;;;;;;;;;25.72;50.66;95579.44;10232909;28;1894;-69
2022/07/26 03:14:02;;;;;;;;;;;;;;;25.72;50.49;95579.44;10232010;28;1902;-70
2022/07/26 03:19:02;;;;;;;;;;;;;;;25.67;50.38;95576.94;10235992;28;2003;-70
2022/07/26 03:24:02;;;;;;;;;;;;;;;25.68;50.45;95589.91;10244051;28;2026;-70
2022/07/26 03:29:03;;;;;;;;;;;;;;;25.70;50.53;95582.41;10246443;28;1930;-69
2022/07/26 03:34:03;;;;;;;;;;;;;;;25.71;50.27;95578.69;10242660;28;1934;-70
2022/07/26 03:39:04;;;;;;;;;;;;;;;25.71;50.35;95570.72;10242885;28;2273;-69
2022/07/26 03:44:04;;;;;;;;;;;;;;;25.70;50.42;95577.09;10246620;28;1997;-69
2022/07/26 03:49:04;;;;;;;;;;;;;;;25.68;50.66;95576.63;10256815;28;1985;-69
2022/07/26 03:54:05;;;;;;;;;;;;;;;25.68;50.59;95573.97;10242442;28;1854;-70
2022/07/26 03:59:06;;;;;;;;;;;;;;;25.67;50.79;95569.78;10238628;28;1931;-69
2022/07/26 04:04:07;;;;;;;;;;;;;;;25.65;50.84;95579.13;10238338;28;1988;-69
2022/07/26 04:09:08;;;;;;;;;;;;;;;25.67;50.67;95583.03;10239691;28;1980;-69
2022/07/26 04:14:08;;;;;;;;;;;;;;;25.68;50.87;95578.50;10251354;28;2036;-69
2022/07/26 04:19:09;;;;;;;;;;;;;;;25.67;50.87;95582.25;10238953;28;2020;-70
2022/07/26 04:24:09;;;;;;;;;;;;;;;25.65;50.95;95585.22;10240889;28;2058;-69
2022/07/26 04:29:11;;;;;;;;;;;;;;;25.61;50.97;95597.56;10256305;28;2117;-70
2022/07/26 04:34:11;;;;;;;;;;;;;;;25.63;51.10;95592.72;10255114;28;2177;-70
2022/07/26 04:39:12;;;;;;;;;;;;;;;25.61;51.10;95597.56;10241340;28;2060;-70
2022/07/26 04:44:12;;;;;;;;;;;;;;;25.61;50.95;95599.41;10242443;28;2026;-70
2022/07/26 04:49:12;;;;;;;;;;;;;;;25.62;51.02;95596.44;10238639;28;1901;-69
2022/07/26 04:54:14;;;;;;;;;;;;;;;25.60;51.10;95598.63;10241355;28;2042;-70
2022/07/26 04:59:16;;;;;;;;;;;;;;;25.54;51.34;95607.81;10236192;28;1917;-70
2022/07/26 05:04:17;;;;;;;;;;;;;;;25.53;51.17;95610.78;10237211;29;1991;-69
2022/07/26 05:09:17;;;;;;;;;;;;;;;25.10;51.78;95609.81;10240045;28;1976;-69
2022/07/26 05:14:18;;;;;;;;;;;;;;;24.51;53.58;95608.34;10238895;29;1965;-70
2022/07/26 05:19:18;;;;;;;;;;;;;;;24.22;53.72;95612.22;10256807;28;1928;-70
2022/07/26 05:24:18;;;;;;;;;;;;;;;24.04;54.04;95607.84;10240802;28;1978;-69
2022/07/26 05:29:19;;;;;;;;;;;;;;;23.77;54.26;95615.03;10240153;28;1921;-68
2022/07/26 05:34:19;;;;;;;;;;;;;;;23.67;54.50;95610.75;10239301;28;1988;-69
2022/07/26 05:39:19;;;;;;;;;;;;;;;23.44;54.92;95617.81;10236113;28;1912;-68
2022/07/26 05:44:22;;;;;;;;;;;;;;;23.50;55.20;95618.50;10257803;28;1925;-68
2022/07/26 05:49:22;;;;;;;;;;;;;;;23.62;54.79;95613.47;10239108;28;2041;-68
2022/07/26 05:54:22;;;;;;;;;;;;;;;23.58;54.43;95611.72;10238100;28;1977;-68
2022/07/26 05:59:23;;;;;;;;;;;;;;;23.55;54.98;95613.09;10239222;28;1921;-68
2022/07/26 06:04:23;;;;;;;;;;;;;;;23.55;55.21;95621.03;10246334;28;2078;-68
2022/07/26 06:09:25;;;;;;;;;;;;;;;23.62;55.30;95625.94;10234816;28;1953;-68
2022/07/26 06:14:27;;;;;;;;;;;;;;;23.66;55.80;95624.28;10235654;28;1948;-67
2022/07/26 06:19:27;;;;;;;;;;;;;;;23.70;55.78;95625.25;10247596;28;1996;-68
2022/07/26 06:24:28;;;;;;;;;;;;;;;23.72;55.96;95623.84;10249707;28;1972;-68
2022/07/26 06:29:29;;;;;;;;;;;;;;;23.70;55.87;95636.59;10237522;28;1999;-68
2022/07/26 06:34:29;;;;;;;;;;;;;;;23.72;55.74;95639.72;10235155;28;1943;-68
2022/07/26 06:39:31;;;;;;;;;;;;;;;23.79;55.89;95640.13;10232781;28;2091;-68
2022/07/26 06:44:32;;;;;;;;;;;;;;;23.68;56.05;95638.75;10235191;28;1967;-68
2022/07/26 06:49:32;;;;;;;;;;;;;;;23.74;56.33;95648.16;10234021;28;2068;-68
2022/07/26 06:54:34;;;;;;;;;;;;;;;23.98;55.60;95648.72;10238590;28;1965;-68
2022/07/26 06:59:34;;;;;;;;;;;;;;;23.84;56.10;95645.34;10259651;28;2161;-68
2022/07/26 07:04:34;;;;;;;;;;;;;;;23.86;56.16;95651.13;10241773;28;2015;-68
2022/07/26 07:09:36;;;;;;;;;;;;;;;23.82;56.09;95652.75;10242724;29;1862;-68
2022/07/26 07:14:37;;;;;;;;;;;;;;;23.75;56.33;95654.25;10241101;28;1957;-68
2022/07/26 07:19:38;;;;;;;;;;;;;;;23.92;56.05;95659.72;10247418;28;1924;-69
2022/07/26 07:24:39;;;;;;;;;;;;;;;24.00;56.12;95657.16;10236478;28;1986;-69
2022/07/26 07:29:40;;;;;;;;;;;;;;;23.82;55.65;95658.06;10244550;28;1908;-68
2022/07/26 07:34:40;;;;;;;;;;;;;;;23.55;55.00;95670.53;10241416;28;2064;-68
2022/07/26 07:39:40;;;;;;;;;;;;;;;23.45;55.14;95666.22;10257362;28;1956;-68
2022/07/26 07:44:40;;;;;;;;;;;;;;;23.41;55.33;95670.53;10244800;28;1974;-69
2022/07/26 07:49:41;;;;;;;;;;;;;;;23.39;55.83;95668.16;10243766;28;1913;-69
2022/07/26 07:54:41;;;;;;;;;;;;;;;23.42;55.92;95664.16;10238929;28;1983;-68
2022/07/26 07:59:42;;;;;;;;;;;;;;;23.28;55.93;95660.69;10241218;28;2006;-68
2022/07/26 08:04:42;;;;;;;;;;;;;;;23.26;55.55;95668.91;10240634;28;1928;-68
2022/07/26 08:09:42;;;;;;;;;;;;;;;23.26;55.87;95668.91;10251783;28;1917;-68
2022/07/26 08:14:43;;;;;;;;;;;;;;;23.33;55.76;95671.19;10240856;28;1980;-68
2022/07/26 08:19:43;;;;;;;;;;;;;;;23.24;55.79;95668.44;10242344;28;2186;-69
2022/07/26 08:24:45;;;;;;;;;;;;;;;23.31;55.88;95684.69;10242379;28;2014;-69
2022/07/26 08:29:45;;;;;;;;;;;;;;;23.24;56.06;95699.38;10237337;28;1903;-69
2022/07/26 08:34:46;;;;;;;;;;;;;;;23.18;56.36;95703.19;10238465;28;1988;-68
2022/07/26 08:39:46;;;;;;;;;;;;;;;23.11;56.55;95708.84;10239171;28;1968;-69
2022/07/26 08:44:47;;;;;;;;;;;;;;;22.97;57.20;95701.94;10243187;29;2020;-68
2022/07/26 08:49:47;;;;;;;;;;;;;;;22.92;57.17;95699.38;10221831;28;1932;-68
2022/07/26 08:54:48;;;;;;;;;;;;;;;22.94;57.24;95697.22;10240553;28;1995;-68
2022/07/26 09:00:09;;;;;;;;;;;;;;;22.92;57.35;95697.53;10236527;29;2003;-68
2022/07/26 09:05:09;;;;;;;;;;;;;;;23.06;57.28;95710.78;10253233;28;1993;-69
2022/07/26 09:10:10;;;;;;;;;;;;;;;23.08;57.20;95703.34;10238029;28;1835;-68
2022/07/26 09:15:17;;;;;;;;;;;;;;;23.17;56.71;95718.25;10238389;28;1949;-68
2022/07/26 09:20:19;;;;;;;;;;;;;;;23.11;57.12;95705.41;10238258;28;2030;-68
2022/07/26 09:25:20;;;;;;;;;;;;;;;23.06;57.31;95703.63;10238333;28;1976;-69
2022/07/26 09:30:21;;;;;;;;;;;;;;;23.08;57.43;95704.13;10235469;28;1848;-68
2022/07/26 09:35:21;;;;;;;;;;;;;;;23.11;57.06;95703.56;10239222;28;1815;-68
2022/07/26 09:40:21;;;;;;;;;;;;;;;23.12;57.25;95701.69;10236301;28;1902;-69
2022/07/26 09:45:22;;;;;;;;;;;;;;;23.08;56.85;95696.19;10236399;28;1910;-69
2022/07/26 09:50:24;;;;;;;;;;;;;;;23.03;56.79;95693.66;10253156;28;1864;-68
2022/07/26 09:55:25;;;;;;;;;;;;;;;23.08;57.02;95698.06;10230206;28;1846;-68
2022/07/26 10:00:26;;;;;;;;;;;;;;;23.07;56.79;95699.13;10249384;28;1989;-68
2022/07/26 10:05:26;;;;;;;;;;;;;;;23.11;56.54;95695.63;10238018;29;1970;-68
2022/07/26 10:10:27;;;;;;;;;;;;;;;23.18;56.79;95689.97;10249806;28;2076;-69
2022/07/26 10:15:34;;;;;;;;;;;;;;;23.26;56.14;95684.78;10229751;29;1980;-68
2022/07/26 10:20:37;;;;;;;;;;;;;;;23.28;56.03;95693.22;10234258;29;1856;-69
2022/07/26 10:25:45;;;;;;;;;;;;;;;23.35;55.50;95685.69;10234791;28;1906;-68
2022/07/26 10:30:46;;;;;;;;;;;;;;;23.37;55.12;95674.81;10239189;28;1939;-68
2022/07/26 10:35:47;;;;;;;;;;;;;;;23.44;54.53;95680.50;10241145;28;1889;-68
2022/07/26 10:40:56;;;;;;;;;;;;;;;23.53;53.64;95689.34;10240488;28;1921;-69
2022/07/26 10:46:15;;;;;;;;;;;;;;;23.51;53.84;95685.41;10240023;28;1942;-68
2022/07/26 10:51:26;;;;;;;;;;;;;;;23.52;53.71;95687.78;10241020;28;2099;-68
2022/07/26 10:56:27;;;;;;;;;;;;;;;23.64;53.16;95682.00;10243495;28;1860;-69
2022/07/26 11:01:34;;;;;;;;;;;;;;;23.76;53.10;95683.06;10244416;28;1879;-68
2022/07/26 11:06:34;;;;;;;;;;;;;;;23.91;52.80;95682.75;10243829;28;2060;-69
2022/07/26 11:11:34;;;;;;;;;;;;;;;24.03;52.88;95671.66;10255908;28;1784;-69
2022/07/26 11:16:35;;;;;;;;;;;;;;;24.05;52.20;95675.59;10239185;28;1983;-69
2022/07/26 11:21:36;;;;;;;;;;;;;;;24.01;51.95;95676.47;10252035;28;1854;-69
2022/07/26 11:26:43;;;;;;;;;;;;;;;24.03;51.55;95663.72;10237312;28;2015;-69
2022/07/26 11:31:44;;;;;;;;;;;;;;;23.96;50.72;95658.84;10240108;28;1890;-69
2022/07/26 11:36:46;;;;;;;;;;;;;;;23.96;50.67;95650.91;10240759;28;1828;-69
2022/07/26 11:41:46;;;;;;;;;;;;;;;23.93;50.74;95653.34;10250075;28;2316;-69
2022/07/26 11:46:47;;;;;;;;;;;;;;;23.90;50.66;95644.13;10241462;28;2170;-69
2022/07/26 11:51:48;;;;;;;;;;;;;;;23.88;50.52;95638.38;10256563;28;2241;-69
2022/07/26 11:57:08;;;;;;;;;;;;;;;23.93;51.25;95646.19;10258043;28;1831;-68
2022/07/26 12:02:09;;;;;;;;;;;;;;;23.97;51.96;95651.66;10238867;28;1876;-68
2022/07/26 12:07:13;;;;;;;;;;;;;;;24.01;51.56;95653.41;10242243;29;1977;-69
2022/07/26 12:12:20;;;;;;;;;;;;;;;23.94;52.76;95653.06;10243127;28;1830;-69
2022/07/26 12:17:21;;;;;;;;;;;;;;;23.81;53.31;95645.91;10234993;28;1971;-69
2022/07/26 12:22:22;;;;;;;;;;;;;;;23.91;53.01;95637.75;10237825;29;1873;-68
2022/07/26 12:27:23;;;;;;;;;;;;;;;23.92;53.24;95646.47;10235055;28;1906;-69
2022/07/26 12:32:31;;;;;;;;;;;;;;;23.91;53.13;95632.47;10234713;28;1840;-68
2022/07/26 12:37:33;;;;;;;;;;;;;;;23.96;52.63;95640.31;10232671;29;1951;-68
2022/07/26 12:42:38;;;;;;;;;;;;;;;23.93;52.51;95640.88;10241930;28;1900;-68
2022/07/26 12:47:39;;;;;;;;;;;;;;;24.00;52.61;95646.56;10253414;28;1977;-68
2022/07/26 12:52:41;;;;;;;;;;;;;;;23.99;52.77;95646.84;10237370;28;1928;-69
2022/07/26 12:57:42;;;;;;;;;;;;;;;24.04;52.24;95642.28;10241344;28;1929;-68
2022/07/26 13:02:43;;;;;;;;;;;;;;;24.01;51.95;95632.22;10240794;28;1879;-69
2022/07/26 13:07:44;;;;;;;;;;;;;;;24.05;51.75;95627.94;10232796;28;1918;-68
2022/07/26 13:12:45;;;;;;;;;;;;;;;23.96;52.57;95624.41;10232740;28;1828;-69
2022/07/26 13:17:46;;;;;;;;;;;;;;;24.06;52.81;95631.38;10233416;28;1829;-68
2022/07/26 13:22:46;;;;;;;;;;;;;;;24.17;52.51;95617.59;10249340;28;1889;-69
2022/07/26 13:27:47;;;;;;;;;;;;;;;24.16;52.45;95613.41;10235353;28;1975;-69
2022/07/26 13:32:47;;;;;;;;;;;;;;;24.13;52.15;95611.34;10240201;28;1837;-68
2022/07/26 13:37:47;;;;;;;;;;;;;;;24.09;52.03;95618.31;10248022;28;1883;-69
2022/07/26 13:42:48;;;;;;;;;;;;;;;24.25;51.87;95616.13;10236456;28;1818;-69
2022/07/26 13:47:49;;;;;;;;;;;;;;;24.23;51.89;95613.75;10239403;28;1887;-68
2022/07/26 13:52:49;;;;;;;;;;;;;;;24.21;51.85;95609.88;10241793;28;1846;-69
2022/07/26 13:57:49;;;;;;;;;;;;;;;24.17;51.94;95614.19;10233848;28;1836;-69
2022/07/26 14:02:50;;;;;;;;;;;;;;;24.16;51.52;95604.66;10249288;28;1789;-69
2022/07/26 14:07:51;;;;;;;;;;;;;;;24.10;51.65;95611.16;10232159;28;1902;-68
2022/07/26 14:12:52;;;;;;;;;;;;;;;23.99;51.59;95620.38;10238163;28;1850;-69
2022/07/26 14:17:52;;;;;;;;;;;;;;;23.91;51.77;95613.94;10237285;28;1841;-69
2022/07/26 14:22:55;;;;;;;;;;;;;;;23.97;51.36;95617.25;10237707;28;1897;-69
2022/07/26 14:27:55;;;;;;;;;;;;;;;23.84;51.54;95618.84;10232119;28;1964;-69
2022/07/26 14:32:55;;;;;;;;;;;;;;;23.86;51.58;95610.63;10235221;28;1904;-68
2022/07/26 14:37:56;;;;;;;;;;;;;;;23.92;51.50;95614.72;10234705;28;1889;-69
2022/07/26 14:42:56;;;;;;;;;;;;;;;24.00;51.55;95604.22;10232803;28;1860;-69
2022/07/26 14:47:57;;;;;;;;;;;;;;;23.94;51.40;95613.34;10236532;28;1902;-69
2022/07/26 14:52:58;;;;;;;;;;;;;;;23.86;51.72;95607.97;10233202;29;2372;-69
2022/07/26 14:57:58;;;;;;;;;;;;;;;23.83;51.32;95609.34;10229392;28;1951;-69
2022/07/26 15:02:58;;;;;;;;;;;;;;;23.76;51.00;95601.00;10235647;28;1787;-69
2022/07/26 15:07:59;;;;;;;;;;;;;;;23.78;50.58;95609.44;10247222;28;1902;-69
2022/07/26 15:13:00;;;;;;;;;;;;;;;23.70;50.43;95596.91;10235738;28;1870;-68
2022/07/26 15:18:00;;;;;;;;;;;;;;;23.61;50.90;95590.75;10250037;28;1945;-69
2022/07/26 15:23:00;;;;;;;;;;;;;;;23.68;51.21;95591.13;10246143;28;1703;-69
2022/07/26 15:28:01;;;;;;;;;;;;;;;23.76;50.80;95587.00;10242416;28;1969;-69
2022/07/26 15:33:01;;;;;;;;;;;;;;;23.87;50.80;95583.84;10243841;28;1845;-70
2022/07/26 15:38:02;;;;;;;;;;;;;;;23.88;50.83;95579.34;10239861;28;1799;-69
2022/07/26 15:43:02;;;;;;;;;;;;;;;23.86;50.48;95577.00;10240128;28;1836;-69
2022/07/26 15:48:04;;;;;;;;;;;;;;;23.90;50.46;95577.97;10243979;28;1911;-69
2022/07/26 15:53:05;;;;;;;;;;;;;;;23.92;50.37;95575.00;10239724;28;1795;-69
2022/07/26 15:58:05;;;;;;;;;;;;;;;23.93;50.62;95582.63;10240298;28;2443;-70
2022/07/26 16:03:05;;;;;;;;;;;;;;;24.07;50.16;95567.53;10255548;28;1944;-69
2022/07/26 16:08:06;;;;;;;;;;;;;;;24.03;50.29;95566.56;10239405;28;1915;-69
2022/07/26 16:13:06;;;;;;;;;;;;;;;24.00;50.11;95569.78;10240260;28;1905;-70
2022/07/26 16:18:06;;;;;;;;;;;;;;;24.09;49.63;95561.94;10239917;28;2627;-70
2022/07/26 16:23:08;;;;;;;;;;;;;;;24.09;49.94;95560.06;10240861;28;1834;-69
2022/07/26 16:28:08;;;;;;;;;;;;;;;24.18;49.83;95554.84;10241306;28;1954;-70
2022/07/26 16:33:09;;;;;;;;;;;;;;;24.19;50.23;95554.53;10238667;28;1891;-69
2022/07/26 16:38:09;;;;;;;;;;;;;;;24.22;50.42;95556.59;10250849;28;1991;-69
2022/07/26 16:43:10;;;;;;;;;;;;;;;24.21;50.41;95560.31;10238527;28;1956;-69
2022/07/26 16:48:10;;;;;;;;;;;;;;;24.22;50.62;95564.53;10238911;28;1907;-69
2022/07/26 16:53:10;;;;;;;;;;;;;;;24.17;50.86;95559.34;10241454;28;1817;-69
2022/07/26 16:58:11;;;;;;;;;;;;;;;24.17;51.30;95564.63;10236088;28;1688;-69
2022/07/26 17:03:11;;;;;;;;;;;;;;;24.12;51.07;95559.47;10238598;28;1778;-69
2022/07/26 17:08:12;;;;;;;;;;;;;;;24.11;50.71;95563.19;10233598;28;1965;-69
2022/07/26 17:13:13;;;;;;;;;;;;;;;24.15;50.56;95564.16;10238423;28;1767;-70
2022/07/26 17:18:13;;;;;;;;;;;;;;;24.18;50.16;95566.22;10237902;28;1938;-70
2022/07/26 17:23:13;;;;;;;;;;;;;;;24.04;49.51;95562.03;10233191;28;1914;-70
2022/07/26 17:28:14;;;;;;;;;;;;;;;23.97;49.30;95561.63;10237456;28;1929;-70
2022/07/26 17:33:14;;;;;;;;;;;;;;;23.92;48.74;95565.22;10246870;28;1825;-70
2022/07/26 17:38:14;;;;;;;;;;;;;;;23.81;48.74;95563.84;10234194;28;1857;-70
2022/07/26 17:43:15;;;;;;;;;;;;;;;23.83;48.72;95569.63;10248709;28;1778;-70
2022/07/26 17:48:15;;;;;;;;;;;;;;;23.81;48.45;95571.78;10234288;28;1902;-68
2022/07/26 17:53:15;;;;;;;;;;;;;;;23.78;47.42;95585.59;10236974;28;1808;-64
2022/07/26 17:58:16;;;;;;;;;;;;;;;23.71;47.47;95577.31;10250709;28;1927;-68
2022/07/26 18:03:16;;;;;;;;;;;;;;;23.72;47.59;95586.03;10248142;28;1786;-67
2022/07/26 18:08:17;;;;;;;;;;;;;;;23.63;46.96;95583.31;10235523;28;1911;-68
2022/07/26 18:13:17;;;;;;;;;;;;;;;23.63;47.02;95585.94;10253056;28;1888;-67
2022/07/26 18:18:18;;;;;;;;;;;;;;;23.64;47.70;95582.22;10231543;28;2164;-66
2022/07/26 18:23:19;;;;;;;;;;;;;;;23.71;47.12;95581.81;10236445;28;2175;-66
2022/07/26 18:28:20;;;;;;;;;;;;;;;23.74;47.22;95589.94;10237557;28;1999;-65
2022/07/26 18:33:20;;;;;;;;;;;;;;;23.75;47.23;95586.22;10238109;28;1883;-66
2022/07/26 18:38:21;;;;;;;;;;;;;;;23.77;47.03;95591.22;10242563;28;1901;-68
2022/07/26 18:43:21;;;;;;;;;;;;;;;23.74;47.08;95589.94;10243531;28;1863;-67
2022/07/26 18:48:22;;;;;;;;;;;;;;;23.77;46.78;95588.56;10239463;28;1915;-67
2022/07/26 18:53:22;;;;;;;;;;;;;;;23.67;46.90;95596.72;10244531;28;1831;-67
2022/07/26 18:58:23;;;;;;;;;;;;;;;23.64;47.01;95595.44;10242956;28;1827;-67
2022/07/26 19:03:24;;;;;;;;;;;;;;;23.67;47.09;95592.22;10243254;28;1869;-67
2022/07/26 19:08:24;;;;;;;;;;;;;;;23.59;47.17;95598.22;10233162;28;1932;-67
2022/07/26 19:13:24;;;;;;;;;;;;;;;23.58;47.36;95599.28;10247294;28;1799;-67
2022/07/26 19:18:25;;;;;;;;;;;;;;;23.56;47.48;95617.31;10243861;28;1886;-67
2022/07/26 19:23:26;;;;;;;;;;;;;;;23.64;47.55;95618.50;10240393;28;1839;-67
2022/07/26 19:28:26;;;;;;;;;;;;;;;23.64;47.80;95621.16;10239253;29;1968;-70
2022/07/26 19:33:27;;;;;;;;;;;;;;;23.65;48.41;95622.69;10241925;28;1897;-69
2022/07/26 19:38:28;;;;;;;;;;;;;;;23.67;48.37;95626.63;10240408;28;1891;-69
2022/07/26 19:43:29;;;;;;;;;;;;;;;23.70;48.84;95641.13;10242908;28;1854;-69
2022/07/26 19:48:29;;;;;;;;;;;;;;;23.72;48.92;95634.44;10242116;28;1985;-70
2022/07/26 19:53:30;;;;;;;;;;;;;;;23.70;49.31;95638.47;10244863;28;1879;-70
2022/07/26 19:58:31;;;;;;;;;;;;;;;23.68;49.67;95640.63;10241146;28;1859;-69
2022/07/26 20:03:31;;;;;;;;;;;;;;;23.70;49.91;95633.19;10244797;28;1971;-70
2022/07/26 20:08:32;;;;;;;;;;;;;;;23.76;49.76;95627.47;10238626;28;1903;-68
2022/07/26 20:13:32;;;;;;;;;;;;;;;23.79;49.65;95629.53;10243878;28;1938;-70
2022/07/26 20:18:32;;;;;;;;;;;;;;;23.80;49.83;95623.16;10240497;28;1868;-70
2022/07/26 20:23:33;;;;;;;;;;;;;;;23.94;49.70;95629.22;10238205;28;1851;-70
2022/07/26 20:28:33;;;;;;;;;;;;;;;23.98;49.38;95611.66;10239510;28;1914;-69
2022/07/26 20:33:34;;;;;;;;;;;;;;;24.04;49.81;95623.75;10238562;28;1892;-70
2022/07/26 20:38:34;;;;;;;;;;;;;;;24.07;49.83;95625.00;10237344;28;1859;-70
2022/07/26 20:43:34;;;;;;;;;;;;;;;24.06;49.76;95624.22;10234427;28;1882;-70
2022/07/26 20:48:35;;;;;;;;;;;;;;;24.08;49.54;95632.66;10237967;28;1969;-70
2022/07/26 20:53:36;;;;;;;;;;;;;;;24.07;49.61;95631.06;10233457;28;1866;-70
2022/07/26 20:58:37;;;;;;;;;;;;;;;24.07;49.79;95631.06;10235669;28;1919;-70
2022/07/26 21:03:37;;;;;;;;;;;;;;;24.05;49.92;95627.94;10234600;28;1855;-69
2022/07/26 21:08:38;;;;;;;;;;;;;;;23.97;50.03;95636.56;10232321;28;1906;-70
2022/07/26 21:13:38;;;;;;;;;;;;;;;23.97;50.21;95631.25;10232490;28;1817;-69
2022/07/26 21:18:38;;;;;;;;;;;;;;;24.04;50.13;95634.34;10246071;28;1836;-70
2022/07/26 21:23:39;;;;;;;;;;;;;;;24.03;50.04;95626.63;10239176;28;1874;-69
2022/07/26 21:28:40;;;;;;;;;;;;;;;23.87;50.61;95639.44;10237419;28;1954;-70
2022/07/26 21:33:43;;;;;;;;;;;;;;;23.81;50.91;95637.19;10236933;28;1759;-71
2022/07/26 21:38:43;;;;;;;;;;;;;;;23.86;50.55;95637.88;10230868;28;1887;-70
2022/07/26 21:43:44;;;;;;;;;;;;;;;23.94;50.69;95631.88;10251231;28;1875;-70
2022/07/26 21:48:44;;;;;;;;;;;;;;;24.00;50.54;95640.47;10233425;28;1976;-70
2022/07/26 21:53:45;;;;;;;;;;;;;;;24.09;50.74;95628.91;10253895;28;1802;-70
2022/07/26 21:58:45;;;;;;;;;;;;;;;24.13;50.62;95634.41;10233458;28;1846;-70
2022/07/26 22:03:45;;;;;;;;;;;;;;;24.18;50.71;95635.06;10237332;28;1863;-70
2022/07/26 22:08:46;;;;;;;;;;;;;;;24.20;50.85;95632.13;10238414;28;1902;-70
2022/07/26 22:13:46;;;;;;;;;;;;;;;24.18;50.45;95631.63;10237404;28;1896;-70
2022/07/26 22:18:46;;;;;;;;;;;;;;;24.19;50.86;95630.56;10231958;28;1936;-70
2022/07/26 22:23:46;;;;;;;;;;;;;;;24.20;50.70;95624.97;10247420;28;2230;-70
2022/07/26 22:28:47;;;;;;;;;;;;;;;24.08;50.87;95627.34;10245943;28;1895;-70
2022/07/26 22:33:47;;;;;;;;;;;;;;;23.98;51.11;95635.50;10257152;28;1802;-70
2022/07/26 22:38:47;;;;;;;;;;;;;;;24.02;50.77;95639.13;10245539;28;1813;-70
2022/07/26 22:43:49;;;;;;;;;;;;;;;23.98;50.92;95618.81;10245935;28;1874;-70
2022/07/26 22:48:49;;;;;;;;;;;;;;;24.06;50.96;95620.78;10248133;28;1898;-70
2022/07/26 22:53:49;;;;;;;;;;;;;;;24.07;50.95;95620.47;10259353;28;1862;-69
2022/07/26 22:58:50;;;;;;;;;;;;;;;24.11;50.99;95626.75;10243947;28;1950;-70
2022/07/26 23:03:50;;;;;;;;;;;;;;;24.12;50.94;95616.94;10246808;28;1840;-70
2022/07/26 23:08:50;;;;;;;;;;;;;;;24.10;50.98;95619.91;10243941;28;1964;-71
2022/07/26 23:13:51;;;;;;;;;;;;;;;24.08;50.87;95611.47;10240975;28;1880;-70
2022/07/26 23:18:51;;;;;;;;;;;;;;;24.08;50.85;95616.75;10243375;29;1794;-71
2022/07/26 23:23:51;;;;;;;;;;;;;;;24.08;50.88;95619.41;10244436;28;1774;-70
2022/07/26 23:28:52;;;;;;;;;;;;;;;24.00;50.99;95625.38;10242541;28;1956;-70
2022/07/26 23:33:52;;;;;;;;;;;;;;;23.95;51.25;95633.44;10241972;28;1846;-70
2022/07/26 23:38:53;;;;;;;;;;;;;;;23.88;51.41;95630.41;10242233;28;1880;-70
2022/07/26 23:43:54;;;;;;;;;;;;;;;23.98;51.11;95611.66;10244053;28;1844;-70
2022/07/26 23:48:54;;;;;;;;;;;;;;;24.03;51.05;95602.81;10242136;28;1982;-71
2022/07/26 23:53:54;;;;;;;;;;;;;;;24.02;50.43;95602.03;10244635;28;1782;-70
2022/07/26 23:58:55;;;;;;;;;;;;;;;23.98;50.55;95606.38;10241809;28;1774;-70
